sensor_id;sensor_type;location;lat;lon;timestamp;P1;durP1;ratioP1;P2;durP2;ratioP2
32319;SDS011;19080;51.750;5.888;2023-05-07T00:00:20;7.20;;;5.07;;
32319;SDS011;19080;51.750;5.888;2023-05-07T00:02:47;4.65;;;4.13;;
32319;SDS011;19080;51.750;5.888;2023-05-07T00:05:14;6.50;;;5.55;;
32319;SDS011;19080;51.750;5.888;2023-05-07T00:07:41;5.50;;;4.72;;
32319;SDS011;19080;51.750;5.888;2023-05-07T00:10:09;4.97;;;4.43;;
32319;SDS011;19080;51.750;5.888;2023-05-07T00:12:37;5.90;;;4.53;;
32319;SDS011;19080;51.750;5.888;2023-05-07T00:15:04;6.78;;;5.43;;
32319;SDS011;19080;51.750;5.888;2023-05-07T00:17:32;7.00;;;5.32;;
32319;SDS011;19080;51.750;5.888;2023-05-07T00:19:59;5.63;;;4.53;;
32319;SDS011;19080;51.750;5.888;2023-05-07T00:22:26;5.18;;;4.70;;
32319;SDS011;19080;51.750;5.888;2023-05-07T00:24:52;6.07;;;4.85;;
32319;SDS011;19080;51.750;5.888;2023-05-07T00:27:19;7.63;;;5.15;;
32319;SDS011;19080;51.750;5.888;2023-05-07T00:29:46;8.57;;;4.55;;
32319;SDS011;19080;51.750;5.888;2023-05-07T00:32:12;6.13;;;5.13;;
32319;SDS011;19080;51.750;5.888;2023-05-07T00:34:39;4.72;;;4.20;;
32319;SDS011;19080;51.750;5.888;2023-05-07T00:37:06;5.65;;;4.70;;
32319;SDS011;19080;51.750;5.888;2023-05-07T00:39:35;5.30;;;4.80;;
32319;SDS011;19080;51.750;5.888;2023-05-07T00:42:02;5.97;;;5.28;;
32319;SDS011;19080;51.750;5.888;2023-05-07T00:44:29;9.05;;;7.60;;
32319;SDS011;19080;51.750;5.888;2023-05-07T00:46:57;7.22;;;6.45;;
32319;SDS011;19080;51.750;5.888;2023-05-07T00:49:30;7.63;;;6.85;;
32319;SDS011;19080;51.750;5.888;2023-05-07T00:52:05;8.95;;;7.35;;
32319;SDS011;19080;51.750;5.888;2023-05-07T00:54:33;10.10;;;8.40;;
32319;SDS011;19080;51.750;5.888;2023-05-07T00:57:01;11.18;;;9.43;;
32319;SDS011;19080;51.750;5.888;2023-05-07T00:59:30;9.68;;;8.75;;
32319;SDS011;19080;51.750;5.888;2023-05-07T01:01:58;10.27;;;9.38;;
32319;SDS011;19080;51.750;5.888;2023-05-07T01:04:25;11.20;;;10.10;;
32319;SDS011;19080;51.750;5.888;2023-05-07T01:06:56;9.82;;;8.93;;
32319;SDS011;19080;51.750;5.888;2023-05-07T01:09:26;10.07;;;9.13;;
32319;SDS011;19080;51.750;5.888;2023-05-07T01:11:54;12.48;;;11.02;;
32319;SDS011;19080;51.750;5.888;2023-05-07T01:14:23;13.73;;;12.30;;
32319;SDS011;19080;51.750;5.888;2023-05-07T01:16:52;13.95;;;12.65;;
32319;SDS011;19080;51.750;5.888;2023-05-07T01:19:21;15.73;;;13.63;;
32319;SDS011;19080;51.750;5.888;2023-05-07T01:21:48;15.93;;;14.40;;
32319;SDS011;19080;51.750;5.888;2023-05-07T01:24:17;15.73;;;14.18;;
32319;SDS011;19080;51.750;5.888;2023-05-07T01:26:44;17.52;;;15.77;;
32319;SDS011;19080;51.750;5.888;2023-05-07T01:29:13;20.02;;;17.10;;
32319;SDS011;19080;51.750;5.888;2023-05-07T01:31:40;16.70;;;14.90;;
32319;SDS011;19080;51.750;5.888;2023-05-07T01:34:09;19.75;;;17.73;;
32319;SDS011;19080;51.750;5.888;2023-05-07T01:36:39;17.73;;;15.93;;
32319;SDS011;19080;51.750;5.888;2023-05-07T01:39:09;21.73;;;19.45;;
32319;SDS011;19080;51.750;5.888;2023-05-07T01:41:36;21.20;;;18.98;;
32319;SDS011;19080;51.750;5.888;2023-05-07T01:44:03;20.58;;;18.27;;
32319;SDS011;19080;51.750;5.888;2023-05-07T01:46:31;19.30;;;17.42;;
32319;SDS011;19080;51.750;5.888;2023-05-07T01:48:59;19.55;;;17.50;;
32319;SDS011;19080;51.750;5.888;2023-05-07T01:51:26;21.65;;;19.55;;
32319;SDS011;19080;51.750;5.888;2023-05-07T01:53:54;22.25;;;19.15;;
32319;SDS011;19080;51.750;5.888;2023-05-07T01:56:21;20.65;;;18.60;;
32319;SDS011;19080;51.750;5.888;2023-05-07T01:58:48;20.33;;;18.23;;
32319;SDS011;19080;51.750;5.888;2023-05-07T02:01:17;20.70;;;18.58;;
32319;SDS011;19080;51.750;5.888;2023-05-07T02:03:44;19.27;;;17.30;;
32319;SDS011;19080;51.750;5.888;2023-05-07T02:06:19;18.45;;;16.65;;
32319;SDS011;19080;51.750;5.888;2023-05-07T02:08:46;18.80;;;16.80;;
32319;SDS011;19080;51.750;5.888;2023-05-07T02:11:14;22.55;;;20.25;;
32319;SDS011;19080;51.750;5.888;2023-05-07T02:13:41;19.55;;;17.48;;
32319;SDS011;19080;51.750;5.888;2023-05-07T02:16:08;18.77;;;16.83;;
32319;SDS011;19080;51.750;5.888;2023-05-07T02:18:34;18.00;;;16.30;;
32319;SDS011;19080;51.750;5.888;2023-05-07T02:21:02;15.32;;;13.77;;
32319;SDS011;19080;51.750;5.888;2023-05-07T02:23:30;15.25;;;13.75;;
32319;SDS011;19080;51.750;5.888;2023-05-07T02:25:56;16.17;;;14.50;;
32319;SDS011;19080;51.750;5.888;2023-05-07T02:28:23;16.20;;;14.27;;
32319;SDS011;19080;51.750;5.888;2023-05-07T02:30:55;17.60;;;15.88;;
32319;SDS011;19080;51.750;5.888;2023-05-07T02:33:24;16.05;;;14.45;;
32319;SDS011;19080;51.750;5.888;2023-05-07T02:35:51;21.00;;;15.63;;
32319;SDS011;19080;51.750;5.888;2023-05-07T02:38:18;16.48;;;14.77;;
32319;SDS011;19080;51.750;5.888;2023-05-07T02:40:44;17.90;;;16.10;;
32319;SDS011;19080;51.750;5.888;2023-05-07T02:43:11;16.17;;;14.52;;
32319;SDS011;19080;51.750;5.888;2023-05-07T02:45:41;15.98;;;14.45;;
32319;SDS011;19080;51.750;5.888;2023-05-07T02:48:10;17.60;;;15.80;;
32319;SDS011;19080;51.750;5.888;2023-05-07T02:50:37;16.70;;;15.10;;
32319;SDS011;19080;51.750;5.888;2023-05-07T02:53:03;17.10;;;15.40;;
32319;SDS011;19080;51.750;5.888;2023-05-07T02:55:30;17.45;;;15.70;;
32319;SDS011;19080;51.750;5.888;2023-05-07T02:57:57;16.58;;;14.88;;
32319;SDS011;19080;51.750;5.888;2023-05-07T03:00:25;18.85;;;16.92;;
32319;SDS011;19080;51.750;5.888;2023-05-07T03:03:01;20.17;;;18.15;;
32319;SDS011;19080;51.750;5.888;2023-05-07T03:05:28;19.27;;;17.30;;
32319;SDS011;19080;51.750;5.888;2023-05-07T03:07:55;19.02;;;17.13;;
32319;SDS011;19080;51.750;5.888;2023-05-07T03:10:21;19.60;;;17.60;;
32319;SDS011;19080;51.750;5.888;2023-05-07T03:12:48;20.05;;;18.02;;
32319;SDS011;19080;51.750;5.888;2023-05-07T03:15:16;23.10;;;20.83;;
32319;SDS011;19080;51.750;5.888;2023-05-07T03:17:43;22.33;;;19.63;;
32319;SDS011;19080;51.750;5.888;2023-05-07T03:20:09;21.80;;;19.10;;
32319;SDS011;19080;51.750;5.888;2023-05-07T03:22:38;18.92;;;17.13;;
32319;SDS011;19080;51.750;5.888;2023-05-07T03:25:06;22.58;;;19.73;;
32319;SDS011;19080;51.750;5.888;2023-05-07T03:27:33;20.27;;;18.33;;
32319;SDS011;19080;51.750;5.888;2023-05-07T03:30:00;18.67;;;16.83;;
32319;SDS011;19080;51.750;5.888;2023-05-07T03:32:27;19.13;;;17.13;;
32319;SDS011;19080;51.750;5.888;2023-05-07T03:34:53;20.77;;;18.58;;
32319;SDS011;19080;51.750;5.888;2023-05-07T03:37:20;17.60;;;15.80;;
32319;SDS011;19080;51.750;5.888;2023-05-07T03:39:48;20.80;;;17.58;;
32319;SDS011;19080;51.750;5.888;2023-05-07T03:42:15;18.75;;;16.83;;
32319;SDS011;19080;51.750;5.888;2023-05-07T03:44:42;19.80;;;17.80;;
32319;SDS011;19080;51.750;5.888;2023-05-07T03:47:08;19.13;;;17.15;;
32319;SDS011;19080;51.750;5.888;2023-05-07T03:49:37;19.55;;;17.65;;
32319;SDS011;19080;51.750;5.888;2023-05-07T03:52:04;21.15;;;19.05;;
32319;SDS011;19080;51.750;5.888;2023-05-07T03:54:32;19.92;;;17.90;;
32319;SDS011;19080;51.750;5.888;2023-05-07T03:56:59;21.33;;;18.20;;
32319;SDS011;19080;51.750;5.888;2023-05-07T03:59:26;27.27;;;20.17;;
32319;SDS011;19080;51.750;5.888;2023-05-07T04:01:54;21.45;;;19.08;;
32319;SDS011;19080;51.750;5.888;2023-05-07T04:04:23;20.02;;;17.98;;
32319;SDS011;19080;51.750;5.888;2023-05-07T04:06:49;22.35;;;19.67;;
32319;SDS011;19080;51.750;5.888;2023-05-07T04:09:16;22.02;;;19.73;;
32319;SDS011;19080;51.750;5.888;2023-05-07T04:11:45;21.45;;;19.23;;
32319;SDS011;19080;51.750;5.888;2023-05-07T04:14:11;24.08;;;20.10;;
32319;SDS011;19080;51.750;5.888;2023-05-07T04:16:38;22.35;;;20.05;;
32319;SDS011;19080;51.750;5.888;2023-05-07T04:19:06;22.92;;;19.30;;
32319;SDS011;19080;51.750;5.888;2023-05-07T04:21:33;22.63;;;20.33;;
32319;SDS011;19080;51.750;5.888;2023-05-07T04:24:02;21.27;;;19.17;;
32319;SDS011;19080;51.750;5.888;2023-05-07T04:26:29;23.38;;;20.92;;
32319;SDS011;19080;51.750;5.888;2023-05-07T04:28:56;21.23;;;19.08;;
32319;SDS011;19080;51.750;5.888;2023-05-07T04:31:30;19.48;;;17.48;;
32319;SDS011;19080;51.750;5.888;2023-05-07T04:33:57;18.30;;;16.40;;
32319;SDS011;19080;51.750;5.888;2023-05-07T04:36:24;21.08;;;17.63;;
32319;SDS011;19080;51.750;5.888;2023-05-07T04:38:58;20.13;;;18.13;;
32319;SDS011;19080;51.750;5.888;2023-05-07T04:41:25;19.60;;;17.67;;
32319;SDS011;19080;51.750;5.888;2023-05-07T04:43:53;21.92;;;19.75;;
32319;SDS011;19080;51.750;5.888;2023-05-07T04:46:22;21.08;;;18.50;;
32319;SDS011;19080;51.750;5.888;2023-05-07T04:48:48;18.95;;;17.13;;
32319;SDS011;19080;51.750;5.888;2023-05-07T04:51:15;19.00;;;16.92;;
32319;SDS011;19080;51.750;5.888;2023-05-07T04:53:42;20.65;;;18.40;;
32319;SDS011;19080;51.750;5.888;2023-05-07T04:56:09;21.38;;;19.00;;
32319;SDS011;19080;51.750;5.888;2023-05-07T04:58:40;21.38;;;19.25;;
32319;SDS011;19080;51.750;5.888;2023-05-07T05:01:07;19.42;;;17.42;;
32319;SDS011;19080;51.750;5.888;2023-05-07T05:03:34;20.48;;;18.25;;
32319;SDS011;19080;51.750;5.888;2023-05-07T05:06:01;20.02;;;18.00;;
32319;SDS011;19080;51.750;5.888;2023-05-07T05:08:31;21.30;;;19.05;;
32319;SDS011;19080;51.750;5.888;2023-05-07T05:11:00;20.08;;;18.10;;
32319;SDS011;19080;51.750;5.888;2023-05-07T05:13:29;20.33;;;18.23;;
32319;SDS011;19080;51.750;5.888;2023-05-07T05:15:57;20.85;;;18.85;;
32319;SDS011;19080;51.750;5.888;2023-05-07T05:18:25;22.23;;;17.98;;
32319;SDS011;19080;51.750;5.888;2023-05-07T05:20:51;19.45;;;17.33;;
32319;SDS011;19080;51.750;5.888;2023-05-07T05:23:18;20.90;;;18.70;;
32319;SDS011;19080;51.750;5.888;2023-05-07T05:25:46;17.95;;;16.17;;
32319;SDS011;19080;51.750;5.888;2023-05-07T05:28:13;19.33;;;17.35;;
32319;SDS011;19080;51.750;5.888;2023-05-07T05:30:40;18.88;;;16.98;;
32319;SDS011;19080;51.750;5.888;2023-05-07T05:33:07;19.25;;;16.90;;
32319;SDS011;19080;51.750;5.888;2023-05-07T05:35:34;18.00;;;16.08;;
32319;SDS011;19080;51.750;5.888;2023-05-07T05:38:04;19.23;;;17.23;;
32319;SDS011;19080;51.750;5.888;2023-05-07T05:40:32;17.80;;;15.98;;
32319;SDS011;19080;51.750;5.888;2023-05-07T05:42:59;19.05;;;17.08;;
32319;SDS011;19080;51.750;5.888;2023-05-07T05:45:27;17.02;;;15.25;;
32319;SDS011;19080;51.750;5.888;2023-05-07T05:47:55;17.58;;;15.90;;
32319;SDS011;19080;51.750;5.888;2023-05-07T05:50:23;17.10;;;15.40;;
32319;SDS011;19080;51.750;5.888;2023-05-07T05:52:51;18.25;;;16.02;;
32319;SDS011;19080;51.750;5.888;2023-05-07T05:55:19;17.80;;;14.70;;
32319;SDS011;19080;51.750;5.888;2023-05-07T05:57:46;15.98;;;14.35;;
32319;SDS011;19080;51.750;5.888;2023-05-07T06:00:13;17.40;;;15.10;;
32319;SDS011;19080;51.750;5.888;2023-05-07T06:02:45;15.38;;;13.73;;
32319;SDS011;19080;51.750;5.888;2023-05-07T06:05:18;15.98;;;14.57;;
32319;SDS011;19080;51.750;5.888;2023-05-07T06:07:49;15.73;;;14.02;;
32319;SDS011;19080;51.750;5.888;2023-05-07T06:10:16;16.55;;;14.85;;
32319;SDS011;19080;51.750;5.888;2023-05-07T06:12:43;14.88;;;13.48;;
32319;SDS011;19080;51.750;5.888;2023-05-07T06:15:10;15.98;;;14.25;;
32319;SDS011;19080;51.750;5.888;2023-05-07T06:17:38;14.85;;;13.52;;
32319;SDS011;19080;51.750;5.888;2023-05-07T06:20:06;17.05;;;14.00;;
32319;SDS011;19080;51.750;5.888;2023-05-07T06:22:33;15.35;;;13.38;;
32319;SDS011;19080;51.750;5.888;2023-05-07T06:25:00;16.80;;;15.13;;
32319;SDS011;19080;51.750;5.888;2023-05-07T06:27:27;14.70;;;13.18;;
32319;SDS011;19080;51.750;5.888;2023-05-07T06:29:54;15.18;;;13.57;;
32319;SDS011;19080;51.750;5.888;2023-05-07T06:32:21;15.02;;;13.52;;
32319;SDS011;19080;51.750;5.888;2023-05-07T06:34:49;13.82;;;12.43;;
32319;SDS011;19080;51.750;5.888;2023-05-07T06:37:16;18.50;;;14.95;;
32319;SDS011;19080;51.750;5.888;2023-05-07T06:39:51;16.77;;;14.05;;
32319;SDS011;19080;51.750;5.888;2023-05-07T06:42:18;14.98;;;13.45;;
32319;SDS011;19080;51.750;5.888;2023-05-07T06:44:47;15.32;;;13.93;;
32319;SDS011;19080;51.750;5.888;2023-05-07T06:47:15;15.45;;;14.00;;
32319;SDS011;19080;51.750;5.888;2023-05-07T06:49:45;15.05;;;13.50;;
32319;SDS011;19080;51.750;5.888;2023-05-07T06:52:15;13.85;;;12.50;;
32319;SDS011;19080;51.750;5.888;2023-05-07T06:54:42;15.57;;;13.95;;
32319;SDS011;19080;51.750;5.888;2023-05-07T06:57:09;13.43;;;12.05;;
32319;SDS011;19080;51.750;5.888;2023-05-07T06:59:35;13.73;;;12.32;;
32319;SDS011;19080;51.750;5.888;2023-05-07T07:02:02;15.10;;;12.50;;
32319;SDS011;19080;51.750;5.888;2023-05-07T07:04:29;13.77;;;12.38;;
32319;SDS011;19080;51.750;5.888;2023-05-07T07:07:03;14.05;;;12.57;;
32319;SDS011;19080;51.750;5.888;2023-05-07T07:09:30;14.77;;;12.68;;
32319;SDS011;19080;51.750;5.888;2023-05-07T07:11:59;12.95;;;11.75;;
32319;SDS011;19080;51.750;5.888;2023-05-07T07:14:26;15.43;;;13.80;;
32319;SDS011;19080;51.750;5.888;2023-05-07T07:16:53;13.05;;;11.63;;
32319;SDS011;19080;51.750;5.888;2023-05-07T07:19:22;12.90;;;11.70;;
32319;SDS011;19080;51.750;5.888;2023-05-07T07:21:51;13.60;;;12.20;;
32319;SDS011;19080;51.750;5.888;2023-05-07T07:24:18;12.55;;;11.10;;
32319;SDS011;19080;51.750;5.888;2023-05-07T07:26:51;12.80;;;11.48;;
32319;SDS011;19080;51.750;5.888;2023-05-07T07:29:19;13.68;;;12.25;;
32319;SDS011;19080;51.750;5.888;2023-05-07T07:31:47;12.95;;;11.75;;
32319;SDS011;19080;51.750;5.888;2023-05-07T07:34:16;13.10;;;11.90;;
32319;SDS011;19080;51.750;5.888;2023-05-07T07:36:42;11.77;;;10.63;;
32319;SDS011;19080;51.750;5.888;2023-05-07T07:39:15;13.63;;;12.32;;
32319;SDS011;19080;51.750;5.888;2023-05-07T07:41:43;13.13;;;11.75;;
32319;SDS011;19080;51.750;5.888;2023-05-07T07:44:10;13.10;;;11.80;;
32319;SDS011;19080;51.750;5.888;2023-05-07T07:49:09;12.55;;;11.30;;
32319;SDS011;19080;51.750;5.888;2023-05-07T07:51:36;12.60;;;11.32;;
32319;SDS011;19080;51.750;5.888;2023-05-07T07:54:03;11.43;;;10.15;;
32319;SDS011;19080;51.750;5.888;2023-05-07T07:56:32;11.23;;;10.18;;
32319;SDS011;19080;51.750;5.888;2023-05-07T07:59:00;11.88;;;10.68;;
32319;SDS011;19080;51.750;5.888;2023-05-07T08:01:29;14.48;;;11.60;;
32319;SDS011;19080;51.750;5.888;2023-05-07T08:03:57;12.65;;;11.38;;
32319;SDS011;19080;51.750;5.888;2023-05-07T08:06:32;10.85;;;9.82;;
32319;SDS011;19080;51.750;5.888;2023-05-07T08:08:59;12.93;;;11.18;;
32319;SDS011;19080;51.750;5.888;2023-05-07T08:11:25;12.25;;;10.95;;
32319;SDS011;19080;51.750;5.888;2023-05-07T08:13:54;11.50;;;10.30;;
32319;SDS011;19080;51.750;5.888;2023-05-07T08:16:21;10.25;;;9.35;;
32319;SDS011;19080;51.750;5.888;2023-05-07T08:18:50;11.82;;;10.32;;
32319;SDS011;19080;51.750;5.888;2023-05-07T08:21:17;10.52;;;8.57;;
32319;SDS011;19080;51.750;5.888;2023-05-07T08:23:44;10.70;;;9.60;;
32319;SDS011;19080;51.750;5.888;2023-05-07T08:26:11;10.43;;;9.32;;
32319;SDS011;19080;51.750;5.888;2023-05-07T08:28:37;10.45;;;9.45;;
32319;SDS011;19080;51.750;5.888;2023-05-07T08:31:04;10.43;;;9.32;;
32319;SDS011;19080;51.750;5.888;2023-05-07T08:33:34;8.68;;;7.72;;
32319;SDS011;19080;51.750;5.888;2023-05-07T08:36:01;9.82;;;8.82;;
32319;SDS011;19080;51.750;5.888;2023-05-07T08:38:28;9.70;;;8.65;;
32319;SDS011;19080;51.750;5.888;2023-05-07T08:40:54;10.23;;;8.52;;
32319;SDS011;19080;51.750;5.888;2023-05-07T08:43:21;9.55;;;7.18;;
32319;SDS011;19080;51.750;5.888;2023-05-07T08:45:55;12.23;;;8.73;;
32319;SDS011;19080;51.750;5.888;2023-05-07T08:48:31;8.38;;;6.63;;
32319;SDS011;19080;51.750;5.888;2023-05-07T08:51:05;9.65;;;8.75;;
32319;SDS011;19080;51.750;5.888;2023-05-07T08:53:33;8.63;;;7.80;;
32319;SDS011;19080;51.750;5.888;2023-05-07T08:55:59;7.80;;;7.00;;
32319;SDS011;19080;51.750;5.888;2023-05-07T08:58:28;9.35;;;7.28;;
32319;SDS011;19080;51.750;5.888;2023-05-07T09:00:55;8.13;;;7.05;;
32319;SDS011;19080;51.750;5.888;2023-05-07T09:03:22;6.88;;;6.10;;
32319;SDS011;19080;51.750;5.888;2023-05-07T09:05:52;8.10;;;7.03;;
32319;SDS011;19080;51.750;5.888;2023-05-07T09:08:23;8.75;;;6.43;;
32319;SDS011;19080;51.750;5.888;2023-05-07T09:10:52;10.10;;;7.40;;
32319;SDS011;19080;51.750;5.888;2023-05-07T09:13:21;6.57;;;6.07;;
32319;SDS011;19080;51.750;5.888;2023-05-07T09:15:48;5.82;;;5.28;;
32319;SDS011;19080;51.750;5.888;2023-05-07T09:18:16;8.95;;;6.60;;
32319;SDS011;19080;51.750;5.888;2023-05-07T09:20:45;7.10;;;5.28;;
32319;SDS011;19080;51.750;5.888;2023-05-07T09:23:12;5.80;;;5.03;;
32319;SDS011;19080;51.750;5.888;2023-05-07T09:25:42;5.03;;;4.53;;
32319;SDS011;19080;51.750;5.888;2023-05-07T09:28:15;5.13;;;4.63;;
32319;SDS011;19080;51.750;5.888;2023-05-07T09:30:41;7.93;;;5.63;;
32319;SDS011;19080;51.750;5.888;2023-05-07T09:33:11;7.18;;;5.38;;
32319;SDS011;19080;51.750;5.888;2023-05-07T09:35:41;5.60;;;4.95;;
32319;SDS011;19080;51.750;5.888;2023-05-07T09:40:40;15.40;;;5.65;;
32319;SDS011;19080;51.750;5.888;2023-05-07T09:43:12;7.57;;;6.15;;
32319;SDS011;19080;51.750;5.888;2023-05-07T09:45:55;5.47;;;4.95;;
32319;SDS011;19080;51.750;5.888;2023-05-07T09:48:25;7.60;;;5.28;;
32319;SDS011;19080;51.750;5.888;2023-05-07T09:50:55;6.43;;;4.50;;
32319;SDS011;19080;51.750;5.888;2023-05-07T09:53:29;7.65;;;6.05;;
32319;SDS011;19080;51.750;5.888;2023-05-07T09:55:59;9.68;;;5.47;;
32319;SDS011;19080;51.750;5.888;2023-05-07T09:58:30;6.75;;;5.32;;
32319;SDS011;19080;51.750;5.888;2023-05-07T10:00:58;8.68;;;5.10;;
32319;SDS011;19080;51.750;5.888;2023-05-07T10:03:27;5.38;;;4.05;;
32319;SDS011;19080;51.750;5.888;2023-05-07T10:06:03;5.22;;;4.35;;
32319;SDS011;19080;51.750;5.888;2023-05-07T10:08:31;6.50;;;4.95;;
32319;SDS011;19080;51.750;5.888;2023-05-07T10:11:00;4.82;;;4.25;;
32319;SDS011;19080;51.750;5.888;2023-05-07T10:13:28;5.80;;;5.20;;
32319;SDS011;19080;51.750;5.888;2023-05-07T10:15:57;7.55;;;5.50;;
32319;SDS011;19080;51.750;5.888;2023-05-07T10:18:30;4.87;;;4.43;;
32319;SDS011;19080;51.750;5.888;2023-05-07T10:21:10;5.72;;;4.70;;
32319;SDS011;19080;51.750;5.888;2023-05-07T10:23:44;6.72;;;5.25;;
32319;SDS011;19080;51.750;5.888;2023-05-07T10:26:15;9.50;;;4.88;;
32319;SDS011;19080;51.750;5.888;2023-05-07T10:28:46;7.93;;;5.47;;
32319;SDS011;19080;51.750;5.888;2023-05-07T10:34:12;6.28;;;4.95;;
32319;SDS011;19080;51.750;5.888;2023-05-07T10:36:44;6.32;;;5.30;;
32319;SDS011;19080;51.750;5.888;2023-05-07T10:39:12;5.90;;;4.47;;
32319;SDS011;19080;51.750;5.888;2023-05-07T10:41:40;5.53;;;4.13;;
32319;SDS011;19080;51.750;5.888;2023-05-07T10:44:07;6.38;;;4.47;;
32319;SDS011;19080;51.750;5.888;2023-05-07T10:46:36;5.20;;;4.03;;
32319;SDS011;19080;51.750;5.888;2023-05-07T10:49:11;7.95;;;4.97;;
32319;SDS011;19080;51.750;5.888;2023-05-07T10:52:37;6.97;;;4.03;;
32319;SDS011;19080;51.750;5.888;2023-05-07T10:57:43;6.40;;;3.72;;
32319;SDS011;19080;51.750;5.888;2023-05-07T11:05:35;5.15;;;3.67;;
32319;SDS011;19080;51.750;5.888;2023-05-07T11:08:16;5.82;;;3.75;;
32319;SDS011;19080;51.750;5.888;2023-05-07T11:10:53;7.50;;;4.15;;
32319;SDS011;19080;51.750;5.888;2023-05-07T11:16:39;4.32;;;3.38;;
32319;SDS011;19080;51.750;5.888;2023-05-07T11:25:09;4.93;;;3.88;;
32319;SDS011;19080;51.750;5.888;2023-05-07T11:27:37;5.65;;;3.30;;
32319;SDS011;19080;51.750;5.888;2023-05-07T11:30:04;3.97;;;3.05;;
32319;SDS011;19080;51.750;5.888;2023-05-07T11:32:31;6.25;;;3.80;;
32319;SDS011;19080;51.750;5.888;2023-05-07T11:35:00;3.33;;;2.97;;
32319;SDS011;19080;51.750;5.888;2023-05-07T11:37:27;6.97;;;3.10;;
32319;SDS011;19080;51.750;5.888;2023-05-07T11:40:03;4.53;;;2.92;;
32319;SDS011;19080;51.750;5.888;2023-05-07T11:42:39;5.53;;;3.00;;
32319;SDS011;19080;51.750;5.888;2023-05-07T11:45:07;4.38;;;2.72;;
32319;SDS011;19080;51.750;5.888;2023-05-07T11:47:35;4.78;;;3.30;;
32319;SDS011;19080;51.750;5.888;2023-05-07T11:50:06;5.18;;;3.10;;
32319;SDS011;19080;51.750;5.888;2023-05-07T11:52:34;4.70;;;3.33;;
32319;SDS011;19080;51.750;5.888;2023-05-07T11:55:02;5.20;;;3.28;;
32319;SDS011;19080;51.750;5.888;2023-05-07T11:57:30;5.13;;;3.10;;
32319;SDS011;19080;51.750;5.888;2023-05-07T11:59:59;4.40;;;3.40;;
32319;SDS011;19080;51.750;5.888;2023-05-07T12:02:37;4.78;;;3.00;;
32319;SDS011;19080;51.750;5.888;2023-05-07T12:05:06;4.50;;;3.30;;
32319;SDS011;19080;51.750;5.888;2023-05-07T12:07:33;6.65;;;3.50;;
32319;SDS011;19080;51.750;5.888;2023-05-07T12:10:07;4.97;;;3.38;;
32319;SDS011;19080;51.750;5.888;2023-05-07T12:12:45;5.30;;;3.03;;
32319;SDS011;19080;51.750;5.888;2023-05-07T12:15:15;5.75;;;3.10;;
32319;SDS011;19080;51.750;5.888;2023-05-07T12:17:42;4.03;;;2.70;;
32319;SDS011;19080;51.750;5.888;2023-05-07T12:20:09;4.38;;;2.30;;
32319;SDS011;19080;51.750;5.888;2023-05-07T12:22:36;5.82;;;2.40;;
32319;SDS011;19080;51.750;5.888;2023-05-07T12:25:03;4.78;;;2.92;;
32319;SDS011;19080;51.750;5.888;2023-05-07T12:27:30;3.55;;;2.72;;
32319;SDS011;19080;51.750;5.888;2023-05-07T12:29:57;5.38;;;2.53;;
32319;SDS011;19080;51.750;5.888;2023-05-07T12:32:25;3.85;;;3.35;;
32319;SDS011;19080;51.750;5.888;2023-05-07T12:34:52;5.53;;;4.13;;
32319;SDS011;19080;51.750;5.888;2023-05-07T12:37:24;6.53;;;4.93;;
32319;SDS011;19080;51.750;5.888;2023-05-07T12:40:07;6.88;;;5.07;;
32319;SDS011;19080;51.750;5.888;2023-05-07T12:42:35;5.22;;;4.70;;
32319;SDS011;19080;51.750;5.888;2023-05-07T12:45:10;4.47;;;4.07;;
32319;SDS011;19080;51.750;5.888;2023-05-07T12:47:43;3.58;;;3.10;;
32319;SDS011;19080;51.750;5.888;2023-05-07T12:50:12;4.97;;;3.58;;
32319;SDS011;19080;51.750;5.888;2023-05-07T12:52:57;5.20;;;3.08;;
32319;SDS011;19080;51.750;5.888;2023-05-07T12:55:24;4.18;;;3.22;;
32319;SDS011;19080;51.750;5.888;2023-05-07T12:57:50;6.97;;;3.78;;
32319;SDS011;19080;51.750;5.888;2023-05-07T13:00:37;5.20;;;3.50;;
32319;SDS011;19080;51.750;5.888;2023-05-07T13:03:05;5.22;;;2.95;;
32319;SDS011;19080;51.750;5.888;2023-05-07T13:05:32;5.25;;;3.33;;
32319;SDS011;19080;51.750;5.888;2023-05-07T13:07:58;5.93;;;3.17;;
32319;SDS011;19080;51.750;5.888;2023-05-07T13:10:26;5.53;;;3.13;;
32319;SDS011;19080;51.750;5.888;2023-05-07T13:12:53;5.97;;;2.95;;
32319;SDS011;19080;51.750;5.888;2023-05-07T13:15:20;9.77;;;3.97;;
32319;SDS011;19080;51.750;5.888;2023-05-07T13:17:47;5.88;;;2.13;;
32319;SDS011;19080;51.750;5.888;2023-05-07T13:20:14;5.53;;;2.70;;
32319;SDS011;19080;51.750;5.888;2023-05-07T13:22:41;4.70;;;2.65;;
32319;SDS011;19080;51.750;5.888;2023-05-07T13:25:08;4.47;;;2.35;;
32319;SDS011;19080;51.750;5.888;2023-05-07T13:27:35;5.03;;;2.75;;
32319;SDS011;19080;51.750;5.888;2023-05-07T13:30:03;5.68;;;3.20;;
32319;SDS011;19080;51.750;5.888;2023-05-07T13:32:31;3.40;;;2.80;;
32319;SDS011;19080;51.750;5.888;2023-05-07T13:34:58;2.70;;;2.17;;
32319;SDS011;19080;51.750;5.888;2023-05-07T13:37:25;3.17;;;1.88;;
32319;SDS011;19080;51.750;5.888;2023-05-07T13:39:51;4.50;;;3.00;;
32319;SDS011;19080;51.750;5.888;2023-05-07T13:42:18;3.88;;;2.85;;
32319;SDS011;19080;51.750;5.888;2023-05-07T13:44:44;3.58;;;2.92;;
32319;SDS011;19080;51.750;5.888;2023-05-07T13:47:11;4.07;;;2.53;;
32319;SDS011;19080;51.750;5.888;2023-05-07T13:49:38;6.63;;;2.83;;
32319;SDS011;19080;51.750;5.888;2023-05-07T13:52:06;3.65;;;2.67;;
32319;SDS011;19080;51.750;5.888;2023-05-07T13:54:32;4.35;;;2.88;;
32319;SDS011;19080;51.750;5.888;2023-05-07T13:56:59;6.32;;;3.22;;
32319;SDS011;19080;51.750;5.888;2023-05-07T13:59:26;4.13;;;2.50;;
32319;SDS011;19080;51.750;5.888;2023-05-07T14:01:53;3.28;;;2.22;;
32319;SDS011;19080;51.750;5.888;2023-05-07T14:04:21;4.30;;;2.95;;
32319;SDS011;19080;51.750;5.888;2023-05-07T14:06:47;2.60;;;2.35;;
32319;SDS011;19080;51.750;5.888;2023-05-07T14:09:14;5.22;;;3.10;;
32319;SDS011;19080;51.750;5.888;2023-05-07T14:11:41;3.50;;;2.45;;
32319;SDS011;19080;51.750;5.888;2023-05-07T14:14:08;3.47;;;2.17;;
32319;SDS011;19080;51.750;5.888;2023-05-07T14:16:37;4.85;;;2.60;;
32319;SDS011;19080;51.750;5.888;2023-05-07T14:19:04;3.13;;;2.22;;
32319;SDS011;19080;51.750;5.888;2023-05-07T14:21:30;2.85;;;2.00;;
32319;SDS011;19080;51.750;5.888;2023-05-07T14:23:57;1.95;;;1.35;;
32319;SDS011;19080;51.750;5.888;2023-05-07T14:26:24;4.75;;;1.25;;
32319;SDS011;19080;51.750;5.888;2023-05-07T14:28:53;1.55;;;0.93;;
32319;SDS011;19080;51.750;5.888;2023-05-07T14:31:21;2.38;;;1.17;;
32319;SDS011;19080;51.750;5.888;2023-05-07T14:33:48;2.13;;;1.05;;
32319;SDS011;19080;51.750;5.888;2023-05-07T14:36:16;2.13;;;1.40;;
32319;SDS011;19080;51.750;5.888;2023-05-07T14:38:43;3.17;;;1.50;;
32319;SDS011;19080;51.750;5.888;2023-05-07T14:41:11;2.75;;;1.70;;
32319;SDS011;19080;51.750;5.888;2023-05-07T14:43:37;2.05;;;1.40;;
32319;SDS011;19080;51.750;5.888;2023-05-07T14:46:04;5.43;;;1.52;;
32319;SDS011;19080;51.750;5.888;2023-05-07T14:48:32;4.40;;;2.22;;
32319;SDS011;19080;51.750;5.888;2023-05-07T14:50:58;4.30;;;3.08;;
32319;SDS011;19080;51.750;5.888;2023-05-07T14:53:26;6.15;;;2.47;;
32319;SDS011;19080;51.750;5.888;2023-05-07T14:55:53;4.13;;;1.98;;
32319;SDS011;19080;51.750;5.888;2023-05-07T14:58:20;3.50;;;1.92;;
32319;SDS011;19080;51.750;5.888;2023-05-07T15:00:47;1.80;;;1.70;;
32319;SDS011;19080;51.750;5.888;2023-05-07T15:03:13;1.85;;;1.75;;
32319;SDS011;19080;51.750;5.888;2023-05-07T15:05:42;5.63;;;1.70;;